EDDL METAR and TAF | Updated Today

EDDL METAR

Düsseldorf Airport

Observation time: 33 min. ago

EDDL 251920Z AUTO 24014KT CAVOK 17/07 Q1016 NOSIG

Need help? Read our tutorial on how to read METARs or read the parsed version below.

Düsseldorf Airport (EDDL) METAR

  • Weather conditions on Wed, 25 May 2022 19:20:00 +0000 (33 min. ago):
  • Present conditions: Dry
  • Clouds: Clear skies
  • Visibility: Greater than 10 km
  • Wind: 240 degrees at 14 knots
  • Temperature: 17 celsius
  • Dew point: 7 celsius
  • Pressure: 1016 millibars
  • Remarks: None


Useful to know...

EDDL TAF

Düsseldorf Airport

TAF EDDL 251700Z 2518/2624 24010KT 9999 BKN040 PROB30 TEMPO 2603/2605 BKN012 TEMPO 2612/2615 25015KT
Observation time: 2:53 hr. ago
Need help? Read our tutorial on how to read TAFs or read the parsed version below.

Parsed version of TAF for Düsseldorf Airport (EDDL)

  • From 25 May at 18:00 UTC, to day 26 of the month at 24:00 UTC
  • Clouds: Broken sky at 1219 meters
  • Visibility: Greater than 10 km
  • Wind: 240 degrees at 10
  • Expected to arise temporarily, from 26 May at 03:00 UTC, to day 26 of the month at 05:00 UTC
    Probability of 30%
  • Clouds: Broken sky at 366 meters
  • Expected to arise temporarily, from 26 May at 12:00 UTC, to day 26 of the month at 15:00 UTC
  • Wind: 250 degrees at 15